createdAt,value
2022-09-16T00:01:36.257Z,14.82
2022-09-16T00:04:02.841Z,14.74
2022-09-16T00:06:30.257Z,14.70
2022-09-16T00:09:00.873Z,14.69
2022-09-16T00:11:27.956Z,14.69
2022-09-16T00:13:54.495Z,14.79
2022-09-16T00:16:24.586Z,14.74
2022-09-16T00:19:00.676Z,14.71
2022-09-16T00:21:28.533Z,14.58
2022-09-16T00:23:58.128Z,14.60
2022-09-16T00:26:24.682Z,14.67
2022-09-16T00:28:51.469Z,14.73
2022-09-16T00:31:18.298Z,14.77
2022-09-16T00:33:44.893Z,14.69
2022-09-16T00:36:20.424Z,14.64
2022-09-16T00:38:51.358Z,14.59
2022-09-16T00:41:19.809Z,14.67
2022-09-16T00:43:58.499Z,14.64
2022-09-16T00:46:51.156Z,14.65
2022-09-16T00:49:26.305Z,14.60
2022-09-16T00:51:57.300Z,14.60
2022-09-16T00:54:24.485Z,14.64
2022-09-16T00:56:54.672Z,14.51
2022-09-16T00:59:28.277Z,14.56
2022-09-16T01:01:56.743Z,14.68
2022-09-16T01:04:29.566Z,14.69
2022-09-16T01:06:56.904Z,14.56
2022-09-16T01:09:25.801Z,14.53
2022-09-16T01:11:52.443Z,14.65
2022-09-16T01:14:39.509Z,14.62
2022-09-16T01:17:46.507Z,14.59
2022-09-16T01:20:41.359Z,14.60
2022-09-16T01:23:29.622Z,14.61
2022-09-16T01:26:08.147Z,14.69
2022-09-16T01:29:04.735Z,14.55
2022-09-16T01:31:42.003Z,14.54
2022-09-16T01:34:25.865Z,14.56
2022-09-16T01:37:06.453Z,14.64
2022-09-16T01:39:40.783Z,14.60
2022-09-16T01:42:20.914Z,14.61
2022-09-16T01:44:52.505Z,14.64
2022-09-16T01:47:49.463Z,14.69
2022-09-16T01:50:32.148Z,14.68
2022-09-16T01:53:10.575Z,14.70
2022-09-16T01:55:42.107Z,14.67
2022-09-16T01:58:25.178Z,14.69
2022-09-16T02:00:56.146Z,14.64
2022-09-16T02:03:32.130Z,14.64
2022-09-16T02:06:06.051Z,14.50
2022-09-16T02:08:38.474Z,14.52
2022-09-16T02:11:08.932Z,14.36
2022-09-16T02:13:39.610Z,14.44
2022-09-16T02:16:12.445Z,14.53
2022-09-16T02:18:42.393Z,14.54
2022-09-16T02:21:14.399Z,14.49
2022-09-16T02:23:48.812Z,14.41
2022-09-16T02:26:18.679Z,14.37
2022-09-16T02:28:49.293Z,14.40
2022-09-16T02:31:17.439Z,14.35
2022-09-16T02:33:47.781Z,14.38
2022-09-16T02:36:19.510Z,14.43
2022-09-16T02:38:50.319Z,14.32
2022-09-16T02:41:16.820Z,14.32
2022-09-16T02:43:45.221Z,14.34
2022-09-16T02:46:29.278Z,14.29
2022-09-16T02:49:06.175Z,14.21
2022-09-16T02:51:43.019Z,14.17
2022-09-16T02:54:20.372Z,14.18
2022-09-16T02:56:47.304Z,14.13
2022-09-16T02:59:16.058Z,14.20
2022-09-16T03:01:45.099Z,14.16
2022-09-16T03:04:14.396Z,14.08
2022-09-16T03:06:41.479Z,14.10
2022-09-16T03:09:13.235Z,14.19
2022-09-16T03:11:51.730Z,14.23
2022-09-16T03:14:55.759Z,14.24
2022-09-16T03:18:03.650Z,14.22
2022-09-16T03:20:54.866Z,14.25
2022-09-16T03:23:29.958Z,14.24
2022-09-16T03:26:23.758Z,14.30
2022-09-16T03:29:07.522Z,14.31
2022-09-16T03:31:59.536Z,14.25
2022-09-16T03:34:35.931Z,14.27
2022-09-16T03:37:09.247Z,14.13
2022-09-16T03:39:36.634Z,14.12
2022-09-16T03:42:06.000Z,14.12
2022-09-16T03:44:35.211Z,14.13
2022-09-16T03:47:02.711Z,14.10
2022-09-16T03:49:30.381Z,13.98
2022-09-16T03:51:58.056Z,14.07
2022-09-16T03:54:24.898Z,14.02
2022-09-16T03:56:51.299Z,13.97
2022-09-16T03:59:17.772Z,13.88
2022-09-16T04:01:45.345Z,13.77
2022-09-16T04:04:12.314Z,13.95
2022-09-16T04:06:39.103Z,13.93
2022-09-16T04:09:07.081Z,13.87
2022-09-16T04:11:35.013Z,13.92
2022-09-16T04:14:01.655Z,13.85
2022-09-16T04:16:28.246Z,13.81
2022-09-16T04:18:54.651Z,13.88
2022-09-16T04:21:21.015Z,13.93
2022-09-16T04:23:48.466Z,13.83
2022-09-16T04:26:15.550Z,13.81
2022-09-16T04:28:41.998Z,13.81
2022-09-16T04:31:11.813Z,13.83
2022-09-16T04:33:38.761Z,13.83
2022-09-16T04:36:08.559Z,13.73
2022-09-16T04:38:36.412Z,13.79
2022-09-16T04:41:05.474Z,13.68
2022-09-16T04:43:32.059Z,13.68
2022-09-16T04:45:58.493Z,13.75
2022-09-16T04:48:25.404Z,13.89
2022-09-16T04:50:53.064Z,13.93
2022-09-16T04:53:22.253Z,13.83
2022-09-16T04:55:48.704Z,13.96
2022-09-16T04:58:15.047Z,13.86
2022-09-16T05:00:41.482Z,13.76
2022-09-16T05:03:08.006Z,13.73
2022-09-16T05:05:34.478Z,13.67
2022-09-16T05:08:00.938Z,13.70
2022-09-16T05:10:28.494Z,13.68
2022-09-16T05:12:55.096Z,13.75
2022-09-16T05:15:21.450Z,13.79
2022-09-16T05:17:51.206Z,13.73
2022-09-16T05:20:18.022Z,13.68
2022-09-16T05:22:44.466Z,13.59
2022-09-16T05:25:10.798Z,13.63
2022-09-16T05:27:37.253Z,13.64
2022-09-16T05:30:04.067Z,13.47
2022-09-16T05:32:30.988Z,13.58
2022-09-16T05:34:57.638Z,13.54
2022-09-16T05:37:24.039Z,13.55
2022-09-16T05:39:50.485Z,13.46
2022-09-16T05:42:16.839Z,13.45
2022-09-16T05:44:43.176Z,13.50
2022-09-16T05:47:09.523Z,13.40
2022-09-16T05:49:37.061Z,13.41
2022-09-16T05:52:03.527Z,13.46
2022-09-16T05:54:31.355Z,13.44
2022-09-16T05:56:57.761Z,13.41
2022-09-16T05:59:24.187Z,13.44
2022-09-16T06:01:50.688Z,13.43
2022-09-16T06:04:17.170Z,13.51
2022-09-16T06:06:45.845Z,13.52
2022-09-16T06:09:20.975Z,13.47
2022-09-16T06:11:50.206Z,13.44
2022-09-16T06:14:18.313Z,13.57
2022-09-16T06:16:45.192Z,13.61
2022-09-16T06:19:14.464Z,13.72
2022-09-16T06:21:43.619Z,13.74
2022-09-16T06:24:10.764Z,13.77
2022-09-16T06:26:39.885Z,13.80
2022-09-16T06:29:07.060Z,13.83
2022-09-16T06:31:36.091Z,13.86
2022-09-16T06:34:02.565Z,13.83
2022-09-16T06:36:32.539Z,13.87
2022-09-16T06:38:59.164Z,13.96
2022-09-16T06:41:25.815Z,13.97
2022-09-16T06:43:52.659Z,13.92
2022-09-16T06:46:22.118Z,14.02
2022-09-16T06:48:50.874Z,14.00
2022-09-16T06:51:19.855Z,14.00
2022-09-16T06:53:46.805Z,13.87
2022-09-16T06:56:16.379Z,13.88
2022-09-16T06:58:44.947Z,13.89
2022-09-16T07:01:23.503Z,13.86
2022-09-16T07:03:52.454Z,13.91
2022-09-16T07:06:20.403Z,13.96
2022-09-16T07:08:47.198Z,13.95
2022-09-16T07:11:19.307Z,14.02
2022-09-16T07:13:47.294Z,14.08
2022-09-16T07:16:24.942Z,14.17
2022-09-16T07:19:01.075Z,14.21
2022-09-16T07:21:30.130Z,14.22
2022-09-16T07:24:01.458Z,14.27
2022-09-16T07:26:29.327Z,14.36
2022-09-16T07:28:58.287Z,14.32
2022-09-16T07:31:26.867Z,14.47
2022-09-16T07:33:58.971Z,14.51
2022-09-16T07:36:30.682Z,14.61
2022-09-16T07:38:58.486Z,14.64
2022-09-16T07:41:30.271Z,14.74
2022-09-16T07:43:59.192Z,14.85
2022-09-16T07:46:28.144Z,14.83
2022-09-16T07:48:55.417Z,14.81
2022-09-16T07:51:24.107Z,14.73
2022-09-16T07:53:55.203Z,14.68
2022-09-16T07:56:25.319Z,14.53
2022-09-16T07:58:52.882Z,14.41
2022-09-16T08:01:19.495Z,14.41
2022-09-16T08:03:47.137Z,14.41
2022-09-16T08:06:16.874Z,14.38
2022-09-16T08:08:44.360Z,14.45
2022-09-16T08:11:12.396Z,14.39
2022-09-16T08:13:39.718Z,14.36
2022-09-16T08:16:08.612Z,14.41
2022-09-16T08:18:35.071Z,14.46
2022-09-16T08:21:13.782Z,14.46
2022-09-16T08:23:40.890Z,14.41
2022-09-16T08:26:09.607Z,14.47
2022-09-16T08:28:50.933Z,14.48
2022-09-16T08:31:18.929Z,14.55
2022-09-16T08:33:46.201Z,14.53
2022-09-16T08:36:15.191Z,14.59
2022-09-16T08:38:43.779Z,14.69
2022-09-16T08:41:13.109Z,14.79
2022-09-16T08:43:45.562Z,14.79
2022-09-16T08:46:30.868Z,14.85
2022-09-16T08:49:19.969Z,14.83
2022-09-16T08:51:46.801Z,14.80
2022-09-16T08:54:25.776Z,14.85
2022-09-16T08:56:54.883Z,14.88
2022-09-16T08:59:27.571Z,14.92
2022-09-16T09:02:24.374Z,14.78
2022-09-16T09:04:51.135Z,14.81
2022-09-16T09:07:55.738Z,14.81
2022-09-16T09:10:27.639Z,14.77
2022-09-16T09:13:22.204Z,14.81
2022-09-16T09:16:00.769Z,14.78
2022-09-16T09:18:45.090Z,14.78
2022-09-16T09:21:36.758Z,14.90
2022-09-16T09:24:17.355Z,14.91
2022-09-16T09:26:52.365Z,14.98
2022-09-16T09:29:33.890Z,14.95
2022-09-16T09:32:13.287Z,14.93
2022-09-16T09:35:16.420Z,15.05
2022-09-16T09:38:12.048Z,15.16
2022-09-16T09:40:50.947Z,15.17
2022-09-16T09:46:12.228Z,15.27
2022-09-16T09:48:44.705Z,15.16
2022-09-16T09:51:22.616Z,15.16
2022-09-16T09:53:56.659Z,15.12
2022-09-16T09:56:37.604Z,15.09
2022-09-16T09:59:25.186Z,15.42
2022-09-16T10:01:59.032Z,15.91
2022-09-16T10:04:25.470Z,16.32
2022-09-16T10:06:54.266Z,16.69
2022-09-16T10:09:22.411Z,17.01
2022-09-16T10:11:54.977Z,17.24
2022-09-16T10:14:32.927Z,17.48
2022-09-16T10:17:02.956Z,17.61
2022-09-16T10:19:33.869Z,17.66
2022-09-16T10:22:23.948Z,17.53
2022-09-16T10:24:59.208Z,17.20
2022-09-16T10:27:35.883Z,16.96
2022-09-16T10:30:17.427Z,16.65
2022-09-16T10:32:46.968Z,16.36
2022-09-16T10:35:25.646Z,15.99
2022-09-16T10:37:55.217Z,15.81
2022-09-16T10:40:23.881Z,15.78
2022-09-16T10:42:53.099Z,15.72
2022-09-16T10:45:28.553Z,15.84
2022-09-16T10:48:00.967Z,16.11
2022-09-16T10:50:31.190Z,16.59
2022-09-16T10:52:57.621Z,16.70
2022-09-16T10:55:38.498Z,16.50
2022-09-16T10:58:10.069Z,16.30
2022-09-16T11:00:49.582Z,15.90
2022-09-16T11:03:32.696Z,15.77
2022-09-16T11:06:32.025Z,15.62
2022-09-16T11:09:30.639Z,15.42
2022-09-16T11:12:28.847Z,15.41
2022-09-16T11:15:38.215Z,15.44
2022-09-16T11:18:21.263Z,15.47
2022-09-16T11:21:02.881Z,15.54
2022-09-16T11:23:53.706Z,15.59
2022-09-16T11:26:26.771Z,15.58
2022-09-16T11:29:15.245Z,15.76
2022-09-16T11:31:47.639Z,16.19
2022-09-16T11:34:26.784Z,16.74
2022-09-16T11:37:11.855Z,17.12
2022-09-16T11:39:46.653Z,17.31
2022-09-16T11:42:34.916Z,17.41
2022-09-16T11:45:36.491Z,17.62
2022-09-16T11:48:21.365Z,17.88
2022-09-16T11:51:20.066Z,18.22
2022-09-16T11:54:02.200Z,18.40
2022-09-16T11:56:52.204Z,18.55
2022-09-16T11:59:24.496Z,18.30
2022-09-16T12:01:53.603Z,17.89
2022-09-16T12:04:37.604Z,18.23
2022-09-16T12:07:17.245Z,18.04
2022-09-16T12:09:56.910Z,17.84
2022-09-16T12:12:29.498Z,17.62
2022-09-16T12:15:05.417Z,17.30
2022-09-16T12:17:36.734Z,17.08
2022-09-16T12:20:18.667Z,16.91
2022-09-16T12:22:54.503Z,16.76
2022-09-16T12:25:35.277Z,16.75
2022-09-16T12:28:12.645Z,17.06
2022-09-16T12:30:45.096Z,17.42
2022-09-16T12:33:20.707Z,17.73
2022-09-16T12:36:10.670Z,17.80
2022-09-16T12:38:37.171Z,17.45
2022-09-16T12:41:06.563Z,17.22
2022-09-16T12:43:48.254Z,17.43
2022-09-16T12:46:42.896Z,17.84
2022-09-16T12:49:28.136Z,18.01
2022-09-16T12:52:26.689Z,18.04
2022-09-16T12:55:09.040Z,18.26
2022-09-16T12:57:59.172Z,18.42
2022-09-16T13:00:40.379Z,18.71
2022-09-16T13:03:10.460Z,18.74
2022-09-16T13:05:38.922Z,18.85
2022-09-16T13:08:18.782Z,18.97
2022-09-16T13:10:56.289Z,18.87
2022-09-16T13:13:35.134Z,18.98
2022-09-16T13:16:05.261Z,18.88
2022-09-16T13:18:46.464Z,18.52
2022-09-16T13:21:22.864Z,18.26
2022-09-16T13:24:00.181Z,18.05
2022-09-16T13:26:38.903Z,17.87
2022-09-16T13:29:24.753Z,17.61
2022-09-16T13:31:51.512Z,17.70
2022-09-16T13:34:18.894Z,17.64
2022-09-16T13:36:45.310Z,17.54
2022-09-16T13:39:15.406Z,17.44
2022-09-16T13:41:47.536Z,17.29
2022-09-16T13:44:37.195Z,17.30
2022-09-16T13:47:09.554Z,17.24
2022-09-16T13:49:45.101Z,17.23
2022-09-16T13:52:16.457Z,17.10
2022-09-16T13:55:09.321Z,17.10
2022-09-16T13:57:48.295Z,17.06
2022-09-16T14:00:22.871Z,16.91
2022-09-16T14:03:07.668Z,16.76
2022-09-16T14:06:01.954Z,16.80
2022-09-16T14:08:57.873Z,16.80
2022-09-16T14:12:03.786Z,16.75
2022-09-16T14:14:48.592Z,16.76
2022-09-16T14:17:23.588Z,16.76
2022-09-16T14:19:56.075Z,16.79
2022-09-16T14:22:25.593Z,16.54
2022-09-16T14:25:00.782Z,16.24
2022-09-16T14:27:36.603Z,16.02
2022-09-16T14:30:14.139Z,15.89
2022-09-16T14:32:41.061Z,15.80
2022-09-16T14:35:17.911Z,15.70
2022-09-16T14:37:47.362Z,15.62
2022-09-16T14:40:16.924Z,15.48
2022-09-16T14:42:57.071Z,15.54
2022-09-16T14:45:23.913Z,15.28
2022-09-16T14:47:54.013Z,15.14
2022-09-16T14:50:30.722Z,15.27
2022-09-16T14:53:02.643Z,15.17
2022-09-16T14:55:31.394Z,15.15
2022-09-16T14:57:58.619Z,15.00
2022-09-16T15:00:30.993Z,15.03
2022-09-16T15:03:06.006Z,14.88
2022-09-16T15:05:35.166Z,14.91
2022-09-16T15:08:15.933Z,14.86
2022-09-16T15:10:52.308Z,15.01
2022-09-16T15:13:22.692Z,15.05
2022-09-16T15:15:56.100Z,15.13
2022-09-16T15:18:28.376Z,15.14
2022-09-16T15:21:02.296Z,15.04
2022-09-16T15:23:29.168Z,15.11
2022-09-16T15:26:16.330Z,15.09
2022-09-16T15:28:55.479Z,15.13
2022-09-16T15:31:29.547Z,15.16
2022-09-16T15:33:58.128Z,15.10
2022-09-16T15:36:41.059Z,15.02
2022-09-16T15:39:29.311Z,15.04
2022-09-16T15:42:10.926Z,14.95
2022-09-16T15:44:42.958Z,14.91
2022-09-16T15:47:21.623Z,14.84
2022-09-16T15:49:53.959Z,14.78
2022-09-16T15:52:20.799Z,14.86
2022-09-16T15:55:02.932Z,14.77
2022-09-16T15:57:38.801Z,14.65
2022-09-16T16:00:16.070Z,14.65
2022-09-16T16:03:01.709Z,14.81
2022-09-16T16:05:31.116Z,14.77
2022-09-16T16:08:00.165Z,14.65
2022-09-16T16:10:36.478Z,14.63
2022-09-16T16:13:04.542Z,14.64
2022-09-16T16:15:35.588Z,14.68
2022-09-16T16:18:05.729Z,14.65
2022-09-16T16:20:34.648Z,14.51
2022-09-16T16:23:01.927Z,14.55
2022-09-16T16:25:28.737Z,14.60
2022-09-16T16:27:55.147Z,14.58
2022-09-16T16:30:21.502Z,14.67
2022-09-16T16:32:48.606Z,14.64
2022-09-16T16:35:15.125Z,14.69
2022-09-16T16:37:46.386Z,14.69
2022-09-16T16:40:14.058Z,14.63
2022-09-16T16:42:42.983Z,14.62
2022-09-16T16:45:10.688Z,14.52
2022-09-16T16:47:37.053Z,14.55
2022-09-16T16:50:03.647Z,14.47
2022-09-16T16:52:30.007Z,14.32
2022-09-16T16:54:56.353Z,14.41
2022-09-16T16:57:22.757Z,14.38
2022-09-16T16:59:49.097Z,14.25
2022-09-16T17:02:15.701Z,14.21
2022-09-16T17:04:42.348Z,14.23
2022-09-16T17:07:25.080Z,14.09
2022-09-16T17:09:52.507Z,14.11
2022-09-16T17:12:18.923Z,14.10
2022-09-16T17:14:45.602Z,14.16
2022-09-16T17:17:11.949Z,14.02
2022-09-16T17:19:38.450Z,13.99
2022-09-16T17:22:04.843Z,13.90
2022-09-16T17:24:31.238Z,13.91
2022-09-16T17:26:57.585Z,13.92
2022-09-16T17:29:24.169Z,13.98
2022-09-16T17:31:50.574Z,13.92
2022-09-16T17:34:16.978Z,13.84
2022-09-16T17:36:45.626Z,13.80
2022-09-16T17:39:17.794Z,13.88
2022-09-16T17:41:46.030Z,13.94
2022-09-16T17:44:13.926Z,13.81
2022-09-16T17:46:42.344Z,13.82
2022-09-16T17:49:15.998Z,13.78
2022-09-16T17:51:43.181Z,13.67
2022-09-16T17:54:10.243Z,13.65
2022-09-16T17:56:36.735Z,13.76
2022-09-16T17:59:03.504Z,13.84
2022-09-16T18:01:30.733Z,13.64
2022-09-16T18:03:57.684Z,13.64
2022-09-16T18:06:28.256Z,13.65
2022-09-16T18:08:54.980Z,13.59
2022-09-16T18:11:22.181Z,13.61
2022-09-16T18:13:54.380Z,13.60
2022-09-16T18:16:21.950Z,13.68
2022-09-16T18:18:53.720Z,13.69
2022-09-16T18:21:21.457Z,13.74
2022-09-16T18:23:50.777Z,13.72
2022-09-16T18:26:18.668Z,13.66
2022-09-16T18:29:08.694Z,13.56
2022-09-16T18:31:33.846Z,13.55
2022-09-16T18:34:00.191Z,13.40
2022-09-16T18:36:29.818Z,13.32
2022-09-16T18:38:57.663Z,13.26
2022-09-16T18:41:26.948Z,13.27
2022-09-16T18:43:56.286Z,13.19
2022-09-16T18:46:26.872Z,13.29
2022-09-16T18:48:54.631Z,13.24
2022-09-16T18:51:26.531Z,13.27
2022-09-16T18:54:00.523Z,13.31
2022-09-16T18:56:28.508Z,13.39
2022-09-16T18:59:20.403Z,13.16
2022-09-16T19:01:48.595Z,12.92
2022-09-16T19:04:18.875Z,13.10
2022-09-16T19:06:48.751Z,13.01
2022-09-16T19:09:18.943Z,12.93
2022-09-16T19:11:45.376Z,12.86
2022-09-16T19:14:13.831Z,12.81
2022-09-16T19:16:42.158Z,12.83
2022-09-16T19:19:12.101Z,12.84
2022-09-16T19:21:38.801Z,12.77
2022-09-16T19:24:07.961Z,12.85
2022-09-16T19:26:37.759Z,12.87
2022-09-16T19:29:06.719Z,12.81
2022-09-16T19:31:35.348Z,12.80
2022-09-16T19:34:01.787Z,12.92
2022-09-16T19:36:30.610Z,12.72
2022-09-16T19:38:57.708Z,12.72
2022-09-16T19:41:28.346Z,12.88
2022-09-16T19:44:00.733Z,12.86
2022-09-16T19:46:28.416Z,12.83
2022-09-16T19:48:55.145Z,12.77
2022-09-16T19:51:23.725Z,12.55
2022-09-16T19:53:51.420Z,12.64
2022-09-16T19:56:23.793Z,12.69
2022-09-16T19:58:51.158Z,12.71
2022-09-16T20:01:20.618Z,12.71
2022-09-16T20:03:49.238Z,12.68
2022-09-16T20:06:19.308Z,12.73
2022-09-16T20:08:48.273Z,12.71
2022-09-16T20:11:19.864Z,12.65
2022-09-16T20:13:49.526Z,12.64
2022-09-16T20:16:17.516Z,12.55
2022-09-16T20:18:44.184Z,12.63
2022-09-16T20:21:16.991Z,12.42
2022-09-16T20:23:44.990Z,12.50
2022-09-16T20:26:14.859Z,12.47
2022-09-16T20:28:43.277Z,12.54
2022-09-16T20:31:12.163Z,12.51
2022-09-16T20:33:39.410Z,12.44
2022-09-16T20:36:10.458Z,12.43
2022-09-16T20:38:38.315Z,12.46
2022-09-16T20:41:10.126Z,12.46
2022-09-16T20:43:37.158Z,12.31
2022-09-16T20:46:28.156Z,12.39
2022-09-16T20:48:55.995Z,12.52
2022-09-16T20:51:25.384Z,12.55
2022-09-16T20:53:59.659Z,12.36
2022-09-16T20:56:32.558Z,12.24
2022-09-16T20:59:03.876Z,12.18
2022-09-16T21:01:33.595Z,12.20
2022-09-16T21:04:05.705Z,12.16
2022-09-16T21:06:34.879Z,12.31
2022-09-16T21:09:05.356Z,12.34
2022-09-16T21:11:33.128Z,12.29
2022-09-16T21:14:06.370Z,12.29
2022-09-16T21:16:34.188Z,12.22
2022-09-16T21:19:03.116Z,12.17
2022-09-16T21:21:30.384Z,12.30
2022-09-16T21:23:59.074Z,12.21
2022-09-16T21:26:31.009Z,12.07
2022-09-16T21:29:02.476Z,12.24
2022-09-16T21:31:33.228Z,12.31
2022-09-16T21:34:02.206Z,12.28
2022-09-16T21:36:29.130Z,12.28
2022-09-16T21:38:55.953Z,12.37
2022-09-16T21:41:23.926Z,12.17
2022-09-16T21:43:55.384Z,12.21
2022-09-16T21:46:28.054Z,12.14
2022-09-16T21:49:01.233Z,12.18
2022-09-16T21:51:35.193Z,12.21
2022-09-16T21:54:03.191Z,12.06
2022-09-16T21:56:30.157Z,11.93
2022-09-16T21:58:58.222Z,12.03
2022-09-16T22:01:27.857Z,12.06
2022-09-16T22:03:57.280Z,12.00
2022-09-16T22:06:25.545Z,12.10
2022-09-16T22:08:56.351Z,12.03
2022-09-16T22:11:24.714Z,11.92
2022-09-16T22:13:52.835Z,12.08
2022-09-16T22:16:28.356Z,11.97
2022-09-16T22:19:17.538Z,11.95
2022-09-16T22:21:46.423Z,11.96
2022-09-16T22:24:13.559Z,11.73
2022-09-16T22:26:40.239Z,11.72
2022-09-16T22:29:08.853Z,11.70
2022-09-16T22:31:37.729Z,11.87
2022-09-16T22:34:04.430Z,11.94
2022-09-16T22:36:33.058Z,12.16
2022-09-16T22:39:02.080Z,12.05
2022-09-16T22:41:29.151Z,12.18
2022-09-16T22:43:55.835Z,11.94
2022-09-16T22:46:28.066Z,11.79
2022-09-16T22:48:55.763Z,11.75
2022-09-16T22:51:22.526Z,11.70
2022-09-16T22:53:49.552Z,11.69
2022-09-16T22:56:21.836Z,11.65
2022-09-16T22:58:55.481Z,11.79
2022-09-16T23:01:24.718Z,11.70
2022-09-16T23:03:54.001Z,11.43
2022-09-16T23:06:21.325Z,11.46
2022-09-16T23:08:48.051Z,11.61
2022-09-16T23:11:17.015Z,11.46
2022-09-16T23:13:45.199Z,11.52
2022-09-16T23:16:17.869Z,11.45
2022-09-16T23:18:45.510Z,11.60
2022-09-16T23:21:14.450Z,11.62
2022-09-16T23:23:43.341Z,11.65
2022-09-16T23:26:15.801Z,11.53
2022-09-16T23:28:42.844Z,11.70
2022-09-16T23:31:12.472Z,11.53
2022-09-16T23:33:39.887Z,11.47
2022-09-16T23:36:07.576Z,11.56
2022-09-16T23:38:35.758Z,11.59
2022-09-16T23:41:07.973Z,11.44
2022-09-16T23:43:34.376Z,11.49
2022-09-16T23:46:02.008Z,11.44
2022-09-16T23:48:29.646Z,11.58
2022-09-16T23:50:56.418Z,11.48
2022-09-16T23:53:22.903Z,11.62
2022-09-16T23:55:49.699Z,11.45
2022-09-16T23:58:16.511Z,11.52
